Terminal Aerodrome Forecast
Issued by NWS Cleveland, OH

Home | Current Version | Previous Version | Graphics & Text | Print | Product List | Glossary On
Versions: 1 2 3 4 5 6 7 8 9 10 11 12 13 14 15 16 17 18 19
000
FTUS41 KCLE 140215 AAA
TAFERI
TAF AMD
KERI 140215Z 1402/1424 34008KT P6SM SCT025 OVC035
     FM140500 31005KT P6SM BKN045
     FM140800 27005KT P6SM SCT060
     FM142100 14004KT P6SM FEW250=

USA.gov is the U.S. government's official web portal to all federal, state and local government web resources and services.